createdAt,value
2023-02-08T00:01:57.520Z,27.27
2023-02-08T00:04:25.393Z,23.63
2023-02-08T00:06:51.941Z,24.98
2023-02-08T00:09:18.410Z,21.98
2023-02-08T00:11:44.870Z,22.67
2023-02-08T00:14:11.502Z,22.23
2023-02-08T00:16:38.060Z,21.55
2023-02-08T00:19:04.497Z,20.00
2023-02-08T00:21:32.314Z,19.88
2023-02-08T00:23:58.868Z,17.77
2023-02-08T00:26:25.439Z,23.60
2023-02-08T00:28:52.006Z,21.15
2023-02-08T00:31:18.493Z,24.30
2023-02-08T00:33:45.023Z,20.10
2023-02-08T00:36:11.942Z,23.55
2023-02-08T00:38:39.871Z,22.27
2023-02-08T00:41:06.428Z,24.92
2023-02-08T00:43:32.938Z,24.42
2023-02-08T00:46:00.148Z,21.90
2023-02-08T00:48:27.086Z,23.60
2023-02-08T00:50:57.335Z,23.88
2023-02-08T00:53:23.764Z,22.75
2023-02-08T00:55:52.391Z,19.55
2023-02-08T00:58:18.871Z,21.15
2023-02-08T01:00:45.398Z,19.23
2023-02-08T01:03:11.926Z,16.98
2023-02-08T01:05:38.425Z,22.85
2023-02-08T01:08:05.261Z,16.60
2023-02-08T01:10:33.996Z,16.83
2023-02-08T01:13:01.965Z,24.50
2023-02-08T01:15:28.581Z,28.55
2023-02-08T01:17:55.180Z,22.42
2023-02-08T01:20:21.792Z,21.83
2023-02-08T01:22:48.246Z,21.73
2023-02-08T01:25:14.976Z,20.25
2023-02-08T01:27:41.589Z,21.85
2023-02-08T01:30:10.338Z,19.60
2023-02-08T01:32:36.899Z,19.58
2023-02-08T01:35:03.671Z,17.77
2023-02-08T01:37:30.193Z,20.08
2023-02-08T01:39:56.638Z,18.52
2023-02-08T01:42:23.601Z,18.85
2023-02-08T01:45:08.813Z,17.77
2023-02-08T01:47:36.633Z,19.27
2023-02-08T01:50:03.155Z,14.18
2023-02-08T01:52:30.119Z,16.67
2023-02-08T01:54:58.475Z,15.57
2023-02-08T01:57:25.177Z,15.68
2023-02-08T01:59:52.943Z,15.05
2023-02-08T02:02:20.907Z,14.98
2023-02-08T02:04:49.510Z,22.45
2023-02-08T02:07:16.248Z,14.30
2023-02-08T02:09:46.746Z,12.95
2023-02-08T02:12:14.104Z,14.15
2023-02-08T02:14:41.614Z,13.55
2023-02-08T02:17:08.180Z,12.15
2023-02-08T02:19:40.180Z,11.30
2023-02-08T02:22:14.222Z,12.50
2023-02-08T02:25:00.171Z,12.50
2023-02-08T02:27:29.875Z,12.13
2023-02-08T02:30:20.515Z,13.73
2023-02-08T02:32:53.877Z,11.82
2023-02-08T02:35:27.430Z,12.80
2023-02-08T02:37:58.682Z,11.43
2023-02-08T02:40:29.204Z,12.65
2023-02-08T02:43:18.802Z,13.60
2023-02-08T02:45:48.410Z,12.85
2023-02-08T02:48:20.249Z,13.25
2023-02-08T02:50:49.184Z,11.05
2023-02-08T02:53:18.293Z,12.05
2023-02-08T02:55:47.849Z,11.57
2023-02-08T02:58:16.713Z,10.18
2023-02-08T03:00:43.436Z,10.02
2023-02-08T03:03:18.848Z,10.80
2023-02-08T03:05:46.854Z,12.43
2023-02-08T03:08:28.300Z,12.70
2023-02-08T03:11:15.448Z,11.45
2023-02-08T03:13:50.253Z,12.02
2023-02-08T03:16:18.703Z,10.55
2023-02-08T03:18:51.452Z,11.02
2023-02-08T03:21:24.693Z,11.20
2023-02-08T03:23:55.178Z,10.50
2023-02-08T03:26:24.178Z,10.23
2023-02-08T03:28:57.008Z,11.43
2023-02-08T03:31:27.742Z,10.73
2023-02-08T03:33:56.663Z,11.23
2023-02-08T03:36:26.172Z,11.77
2023-02-08T03:38:54.296Z,10.27
2023-02-08T03:41:22.922Z,13.73
2023-02-08T03:43:51.977Z,11.35
2023-02-08T03:46:21.168Z,11.82
2023-02-08T03:48:49.495Z,12.98
2023-02-08T03:51:16.854Z,13.68
2023-02-08T03:53:45.910Z,13.52
2023-02-08T03:56:15.589Z,13.75
2023-02-08T03:58:44.796Z,16.33
2023-02-08T04:01:13.863Z,13.30
2023-02-08T04:03:41.442Z,11.10
2023-02-08T04:06:07.985Z,15.93
2023-02-08T04:08:34.610Z,11.73
2023-02-08T04:11:02.650Z,14.10
2023-02-08T04:13:29.186Z,12.73
2023-02-08T04:15:55.621Z,12.52
2023-02-08T04:18:22.171Z,10.70
2023-02-08T04:20:48.663Z,11.30
2023-02-08T04:23:15.196Z,11.60
2023-02-08T04:25:41.684Z,11.27
2023-02-08T04:28:09.660Z,11.20
2023-02-08T04:30:36.182Z,12.80
2023-02-08T04:33:03.768Z,12.63
2023-02-08T04:35:30.467Z,11.32
2023-02-08T04:37:56.929Z,11.18
2023-02-08T04:40:23.476Z,10.20
2023-02-08T04:42:49.996Z,12.25
2023-02-08T04:45:18.008Z,14.02
2023-02-08T04:47:44.501Z,11.43
2023-02-08T04:50:11.039Z,11.55
2023-02-08T04:52:37.552Z,11.73
2023-02-08T04:55:04.280Z,10.35
2023-02-08T04:57:30.867Z,11.60
2023-02-08T04:59:59.998Z,10.75
2023-02-08T05:02:28.465Z,11.48
2023-02-08T05:04:55.033Z,10.40
2023-02-08T05:07:21.610Z,12.70
2023-02-08T05:09:48.149Z,14.95
2023-02-08T05:12:14.605Z,15.52
2023-02-08T05:14:41.117Z,15.07
2023-02-08T05:17:07.683Z,15.82
2023-02-08T05:19:35.513Z,15.60
2023-02-08T05:22:02.140Z,13.85
2023-02-08T05:24:28.648Z,16.77
2023-02-08T05:26:55.180Z,13.40
2023-02-08T05:29:23.124Z,12.18
2023-02-08T05:31:49.742Z,10.73
2023-02-08T05:34:16.276Z,11.75
2023-02-08T05:36:44.098Z,10.60
2023-02-08T05:39:10.582Z,10.38
2023-02-08T05:41:37.109Z,11.57
2023-02-08T05:44:03.568Z,13.45
2023-02-08T05:46:30.217Z,15.27
2023-02-08T05:48:56.734Z,13.95
2023-02-08T05:51:23.254Z,11.68
2023-02-08T05:53:51.131Z,14.27
2023-02-08T05:56:17.700Z,12.73
2023-02-08T05:58:44.204Z,9.77
2023-02-08T06:01:11.040Z,13.98
2023-02-08T06:03:37.643Z,12.15
2023-02-08T06:06:04.332Z,12.70
2023-02-08T06:08:30.853Z,14.13
2023-02-08T06:10:58.687Z,12.15
2023-02-08T06:13:25.136Z,14.35
2023-02-08T06:15:51.650Z,13.32
2023-02-08T06:18:18.161Z,13.50
2023-02-08T06:20:44.697Z,13.20
2023-02-08T06:23:11.216Z,12.90
2023-02-08T06:25:37.812Z,11.45
2023-02-08T06:28:06.887Z,12.25
2023-02-08T06:30:33.382Z,12.65
2023-02-08T06:32:59.872Z,12.70
2023-02-08T06:35:26.418Z,12.07
2023-02-08T06:37:53.057Z,11.75
2023-02-08T06:40:19.775Z,15.65
2023-02-08T06:42:46.761Z,14.85
2023-02-08T06:45:14.632Z,12.95
2023-02-08T06:47:41.172Z,16.10
2023-02-08T06:50:08.227Z,16.48
2023-02-08T06:52:34.893Z,18.00
2023-02-08T06:55:01.423Z,18.33
2023-02-08T06:57:27.945Z,18.20
2023-02-08T06:59:54.502Z,20.80
2023-02-08T07:02:22.575Z,17.75
2023-02-08T07:04:49.146Z,19.67
2023-02-08T07:07:16.662Z,20.27
2023-02-08T07:09:43.274Z,16.48
2023-02-08T07:12:10.329Z,19.27
2023-02-08T07:14:38.800Z,25.95
2023-02-08T07:17:05.427Z,24.27
2023-02-08T07:19:33.612Z,21.30
2023-02-08T07:22:08.351Z,27.40
2023-02-08T07:24:35.694Z,28.73
2023-02-08T07:27:02.913Z,26.65
2023-02-08T07:29:29.655Z,28.58
2023-02-08T07:31:56.255Z,25.92
2023-02-08T07:34:22.921Z,20.45
2023-02-08T07:36:50.877Z,23.17
2023-02-08T07:39:17.436Z,27.30
2023-02-08T07:41:44.038Z,25.45
2023-02-08T07:44:10.667Z,25.58
2023-02-08T07:46:37.258Z,27.90
2023-02-08T07:49:03.800Z,24.85
2023-02-08T07:51:30.484Z,24.98
2023-02-08T07:53:58.497Z,26.73
2023-02-08T07:56:25.122Z,24.10
2023-02-08T07:58:51.730Z,26.30
2023-02-08T08:01:22.992Z,26.02
2023-02-08T08:03:50.247Z,31.60
2023-02-08T08:06:16.927Z,31.88
2023-02-08T08:08:47.378Z,26.05
2023-02-08T08:11:15.822Z,28.63
2023-02-08T08:13:42.747Z,31.23
2023-02-08T08:16:09.419Z,35.78
2023-02-08T08:18:39.046Z,36.60
2023-02-08T08:21:06.148Z,33.00
2023-02-08T08:23:36.404Z,32.53
2023-02-08T08:26:06.938Z,30.73
2023-02-08T08:28:34.910Z,26.55
2023-02-08T08:31:01.641Z,32.38
2023-02-08T08:33:28.422Z,33.28
2023-02-08T08:35:54.977Z,30.15
2023-02-08T08:38:21.673Z,29.25
2023-02-08T08:40:48.267Z,27.38
2023-02-08T08:43:16.084Z,28.35
2023-02-08T08:45:44.213Z,25.23
2023-02-08T08:48:11.016Z,20.58
2023-02-08T08:50:39.407Z,19.23
2023-02-08T08:53:06.216Z,20.50
2023-02-08T08:55:32.823Z,19.70
2023-02-08T08:57:59.386Z,16.85
2023-02-08T09:00:26.016Z,22.75
2023-02-08T09:02:54.072Z,20.98
2023-02-08T09:05:20.682Z,18.98
2023-02-08T09:07:47.296Z,16.63
2023-02-08T09:10:13.927Z,16.98
2023-02-08T09:12:40.537Z,17.65
2023-02-08T09:15:07.536Z,14.52
2023-02-08T09:17:34.054Z,17.58
2023-02-08T09:20:04.667Z,14.27
2023-02-08T09:22:31.500Z,14.95
2023-02-08T09:24:58.201Z,17.67
2023-02-08T09:27:28.075Z,15.63
2023-02-08T09:29:54.649Z,15.77
2023-02-08T09:32:23.105Z,13.60
2023-02-08T09:34:49.659Z,13.18
2023-02-08T09:37:18.128Z,16.45
2023-02-08T09:39:45.189Z,14.75
2023-02-08T09:42:30.948Z,13.85
2023-02-08T09:45:18.530Z,14.75
2023-02-08T09:47:48.380Z,13.85
2023-02-08T09:50:18.092Z,14.75
2023-02-08T09:52:49.391Z,14.00
2023-02-08T09:55:21.388Z,14.25
2023-02-08T09:57:48.892Z,12.02
2023-02-08T10:00:19.112Z,12.90
2023-02-08T10:02:47.284Z,15.43
2023-02-08T10:05:17.040Z,14.70
2023-02-08T10:07:43.855Z,15.45
2023-02-08T11:16:07.825Z,13.57
2023-02-08T11:18:35.501Z,10.18
2023-02-08T11:21:02.847Z,10.77
2023-02-08T11:23:30.198Z,11.10
2023-02-08T11:26:15.356Z,12.52
2023-02-08T11:28:44.047Z,10.15
2023-02-08T11:31:16.256Z,13.32
2023-02-08T11:33:58.427Z,10.75
2023-02-08T11:36:24.902Z,10.80
2023-02-08T11:38:51.490Z,11.13
2023-02-08T11:41:19.578Z,13.60
2023-02-08T11:44:05.850Z,9.93
2023-02-08T11:57:12.933Z,12.23
2023-02-08T11:59:39.372Z,11.65
2023-02-08T12:02:24.638Z,11.05
2023-02-08T12:04:51.140Z,14.40
2023-02-08T12:07:20.928Z,11.75
2023-02-08T12:10:05.219Z,11.80
2023-02-08T12:12:39.850Z,11.25
2023-02-08T12:15:10.692Z,13.20
2023-02-08T12:17:46.278Z,12.25
2023-02-08T12:20:25.849Z,11.60
2023-02-08T12:22:57.419Z,10.80
2023-02-08T12:25:26.739Z,12.65
2023-02-08T12:27:58.911Z,11.55
2023-02-08T12:30:29.663Z,10.75
2023-02-08T12:33:10.991Z,11.75
2023-02-08T12:35:57.643Z,13.05
2023-02-08T12:38:57.665Z,11.63
2023-02-08T12:41:30.165Z,12.98
2023-02-08T12:44:02.446Z,11.25
2023-02-08T12:46:47.304Z,11.23
2023-02-08T12:51:46.781Z,10.60
2023-02-08T12:54:15.392Z,9.80
2023-02-08T12:56:53.566Z,10.27
2023-02-08T12:59:30.378Z,11.90
2023-02-08T13:01:59.999Z,11.38
2023-02-08T13:04:27.578Z,11.57
2023-02-08T13:06:57.167Z,11.43
2023-02-08T13:09:34.382Z,11.60
2023-02-08T13:12:04.486Z,12.57
2023-02-08T13:14:34.413Z,11.90
2023-02-08T13:17:05.108Z,12.38
2023-02-08T13:19:33.266Z,11.52
2023-02-08T13:22:00.110Z,11.63
2023-02-08T13:24:30.548Z,10.88
2023-02-08T13:26:56.979Z,9.40
2023-02-08T13:29:23.891Z,12.05
2023-02-08T13:31:55.177Z,12.23
2023-02-08T13:34:26.258Z,12.70
2023-02-08T13:36:55.805Z,13.30
2023-02-08T13:39:30.381Z,12.23
2023-02-08T13:41:57.087Z,10.45
2023-02-08T13:44:26.594Z,9.07
2023-02-08T13:46:55.060Z,10.73
2023-02-08T13:49:40.800Z,10.48
2023-02-08T13:52:07.564Z,11.65
2023-02-08T13:54:34.146Z,12.23
2023-02-08T13:57:00.939Z,10.00
2023-02-08T13:59:37.898Z,9.40
2023-02-08T14:02:22.344Z,11.25
2023-02-08T14:04:49.673Z,9.77
2023-02-08T14:07:20.402Z,10.63
2023-02-08T14:10:04.591Z,11.00
2023-02-08T14:15:14.453Z,11.88
2023-02-08T14:17:43.569Z,11.63
2023-02-08T14:20:19.185Z,10.50
2023-02-08T14:22:49.321Z,11.45
2023-02-08T14:25:18.181Z,10.10
2023-02-08T14:27:50.558Z,11.73
2023-02-08T14:30:20.832Z,12.93
2023-02-08T14:32:50.344Z,11.38
2023-02-08T14:35:20.647Z,10.38
2023-02-08T14:37:47.828Z,9.23
2023-02-08T14:40:31.655Z,10.00
2023-02-08T14:42:58.979Z,11.93
2023-02-08T14:45:29.307Z,9.23
2023-02-08T14:48:00.611Z,8.30
2023-02-08T14:50:32.632Z,9.55
2023-02-08T14:53:02.704Z,8.75
2023-02-08T14:55:31.794Z,8.38
2023-02-08T14:58:00.982Z,8.65
2023-02-08T15:00:29.043Z,9.43
2023-02-08T15:02:56.442Z,9.98
2023-02-08T15:05:25.315Z,11.55
2023-02-08T15:07:52.750Z,10.98
2023-02-08T15:10:20.030Z,10.13
2023-02-08T15:12:49.223Z,8.93
2023-02-08T15:15:22.564Z,9.32
2023-02-08T15:17:50.685Z,8.52
2023-02-08T15:20:18.739Z,9.48
2023-02-08T15:22:46.609Z,11.07
2023-02-08T15:25:24.080Z,10.68
2023-02-08T15:27:52.238Z,12.27
2023-02-08T15:30:39.487Z,8.48
2023-02-08T15:33:09.342Z,9.88
2023-02-08T15:35:36.329Z,9.52
2023-02-08T15:38:09.850Z,11.20
2023-02-08T15:40:36.352Z,9.63
2023-02-08T15:43:04.151Z,9.95
2023-02-08T15:45:30.843Z,10.73
2023-02-08T15:48:00.619Z,9.75
2023-02-08T15:50:27.844Z,12.15
2023-02-08T15:52:57.439Z,10.70
2023-02-08T15:55:26.630Z,9.65
2023-02-08T15:57:57.546Z,12.50
2023-02-08T16:00:24.935Z,10.73
2023-02-08T16:02:52.436Z,11.75
2023-02-08T16:05:20.164Z,12.75
2023-02-08T16:07:47.206Z,16.20
2023-02-08T16:10:29.128Z,16.13
2023-02-08T16:12:57.624Z,16.05
2023-02-08T16:15:40.736Z,17.27
2023-02-08T16:18:22.040Z,13.55
2023-02-08T16:20:56.720Z,14.57
2023-02-08T16:23:25.110Z,14.43
2023-02-08T16:25:53.144Z,15.52
2023-02-08T16:28:27.818Z,10.80
2023-02-08T16:30:54.910Z,19.65
2023-02-08T16:33:21.762Z,18.67
2023-02-08T16:35:49.434Z,19.98
2023-02-08T16:38:21.254Z,17.63
2023-02-08T16:40:51.753Z,19.98
2023-02-08T16:43:22.029Z,21.17
2023-02-08T16:46:03.407Z,33.28
2023-02-08T16:48:35.055Z,23.20
2023-02-08T16:51:02.106Z,17.98
2023-02-08T16:53:41.432Z,24.60
2023-02-08T16:56:08.887Z,19.90
2023-02-08T16:58:36.652Z,20.15
2023-02-08T17:01:03.399Z,17.80
2023-02-08T17:03:30.546Z,20.17
2023-02-08T17:06:00.042Z,19.55
2023-02-08T17:08:26.842Z,14.35
2023-02-08T17:10:58.772Z,16.83
2023-02-08T17:13:28.077Z,20.77
2023-02-08T17:15:58.387Z,15.73
2023-02-08T17:18:24.894Z,15.40
2023-02-08T17:20:57.806Z,17.20
2023-02-08T17:23:24.452Z,16.07
2023-02-08T17:25:50.965Z,16.55
2023-02-08T17:28:18.583Z,15.10
2023-02-08T17:30:45.461Z,17.77
2023-02-08T17:33:18.548Z,17.70
2023-02-08T17:35:46.608Z,17.00
2023-02-08T17:38:13.860Z,19.38
2023-02-08T17:40:40.313Z,22.65
2023-02-08T17:43:06.798Z,22.98
2023-02-08T17:45:36.457Z,22.00
2023-02-08T17:48:03.243Z,21.75
2023-02-08T17:50:31.285Z,24.95
2023-02-08T17:52:57.810Z,27.30
2023-02-08T17:55:24.908Z,24.63
2023-02-08T17:57:51.512Z,23.08
2023-02-08T18:00:19.313Z,26.40
2023-02-08T18:02:49.086Z,20.95
2023-02-08T18:05:16.040Z,23.77
2023-02-08T18:07:44.042Z,22.33
2023-02-08T18:10:11.158Z,22.58
2023-02-08T18:12:38.893Z,20.63
2023-02-08T18:15:05.986Z,18.25
2023-02-08T18:17:32.826Z,18.33
2023-02-08T18:19:59.342Z,17.30
2023-02-08T18:22:26.210Z,17.65
2023-02-08T18:24:55.204Z,23.90
2023-02-08T18:27:22.292Z,37.35
2023-02-08T18:29:48.840Z,28.40
2023-02-08T18:32:15.938Z,33.83
2023-02-08T18:34:43.058Z,26.98
2023-02-08T18:37:09.552Z,22.02
2023-02-08T18:39:35.945Z,22.00
2023-02-08T18:42:03.900Z,23.73
2023-02-08T18:44:30.376Z,28.13
2023-02-08T18:46:56.942Z,21.23
2023-02-08T18:49:23.809Z,23.90
2023-02-08T18:51:50.402Z,18.63
2023-02-08T18:54:17.899Z,20.40
2023-02-08T18:56:45.636Z,16.80
2023-02-08T18:59:13.540Z,20.92
2023-02-08T19:01:40.084Z,22.65
2023-02-08T19:04:06.706Z,19.92
2023-02-08T19:06:35.624Z,26.50
2023-02-08T19:09:03.764Z,21.40
2023-02-08T19:11:31.251Z,30.02
2023-02-08T19:13:58.836Z,22.30
2023-02-08T19:16:27.852Z,21.05
2023-02-08T19:18:56.390Z,19.52
2023-02-08T19:21:23.161Z,17.38
2023-02-08T19:23:53.830Z,16.42
2023-02-08T19:26:21.022Z,22.80
2023-02-08T19:28:47.896Z,20.08
2023-02-08T19:31:16.014Z,20.17
2023-02-08T19:33:45.259Z,18.17
2023-02-08T19:36:14.351Z,20.95
2023-02-08T19:38:41.405Z,21.65
2023-02-08T19:41:08.908Z,20.13
2023-02-08T19:43:36.054Z,18.38
2023-02-08T19:46:08.021Z,20.45
2023-02-08T19:48:34.754Z,20.25
2023-02-08T19:51:03.021Z,16.90
2023-02-08T19:53:30.090Z,17.45
2023-02-08T19:55:57.145Z,22.63
2023-02-08T19:58:23.834Z,23.20
2023-02-08T20:00:50.603Z,22.90
2023-02-08T20:03:21.937Z,24.10
2023-02-08T20:05:49.432Z,26.10
2023-02-08T20:08:18.200Z,26.17
2023-02-08T20:10:45.707Z,26.25
2023-02-08T20:13:13.583Z,27.15
2023-02-08T20:15:41.245Z,25.30
2023-02-08T20:18:08.627Z,25.10
2023-02-08T20:20:35.577Z,29.27
2023-02-08T20:23:06.994Z,40.63
2023-02-08T20:25:37.393Z,49.05
2023-02-08T20:28:04.116Z,28.15
2023-02-08T20:30:30.979Z,28.15
2023-02-08T20:32:59.119Z,22.88
2023-02-08T20:35:26.044Z,27.52
2023-02-08T20:37:52.652Z,23.08
2023-02-08T20:40:19.190Z,17.50
2023-02-08T20:42:47.137Z,17.13
2023-02-08T20:45:15.255Z,13.20
2023-02-08T20:47:46.603Z,16.60
2023-02-08T20:50:19.321Z,12.48
2023-02-08T20:52:46.952Z,13.33
2023-02-08T20:55:13.513Z,14.23
2023-02-08T20:57:39.986Z,13.18
2023-02-08T21:00:09.016Z,14.43
2023-02-08T21:02:35.558Z,13.32
2023-02-08T21:05:02.185Z,13.48
2023-02-08T21:07:28.737Z,16.17
2023-02-08T21:09:55.212Z,14.75
2023-02-08T21:12:21.660Z,14.02
2023-02-08T21:14:48.171Z,13.70
2023-02-08T21:17:16.114Z,15.02
2023-02-08T21:19:42.705Z,14.70
2023-02-08T21:22:09.620Z,15.70
2023-02-08T21:24:36.035Z,13.07
2023-02-08T21:27:02.574Z,13.15
2023-02-08T21:29:29.459Z,16.05
2023-02-08T21:31:57.528Z,12.18
2023-02-08T21:34:25.417Z,15.20
2023-02-08T21:36:51.976Z,14.07
2023-02-08T21:39:18.852Z,14.65
2023-02-08T21:41:45.313Z,14.73
2023-02-08T21:44:11.792Z,16.33
2023-02-08T21:46:38.284Z,14.32
2023-02-08T21:49:23.364Z,15.80
2023-02-08T21:52:10.003Z,17.17
2023-02-08T21:54:42.103Z,15.88
2023-02-08T21:57:09.633Z,15.25
2023-02-08T21:59:39.372Z,14.63
2023-02-08T22:02:07.271Z,15.70
2023-02-08T22:04:33.951Z,14.52
2023-02-08T22:07:02.248Z,17.13
2023-02-08T22:09:29.138Z,15.18
2023-02-08T22:14:24.987Z,14.65
2023-02-08T22:16:51.537Z,16.55
2023-02-08T22:19:18.076Z,16.70
2023-02-08T22:21:44.674Z,28.13
2023-02-08T22:24:12.751Z,15.65
2023-02-08T22:26:39.387Z,15.60
2023-02-08T22:29:05.923Z,20.85
2023-02-08T22:31:32.548Z,15.65
2023-02-08T22:33:59.255Z,16.55
2023-02-08T22:36:25.799Z,14.07
2023-02-08T22:38:52.338Z,16.45
2023-02-08T22:41:20.209Z,20.40
2023-02-08T22:43:46.742Z,15.85
2023-02-08T22:46:13.388Z,17.05
2023-02-08T22:48:40.391Z,20.70
2023-02-08T22:51:07.499Z,24.20
2023-02-08T22:53:33.995Z,21.48
2023-02-08T22:56:00.586Z,24.00
2023-02-08T22:58:28.643Z,17.98
2023-02-08T23:00:55.362Z,20.40
2023-02-08T23:03:21.956Z,21.27
2023-02-08T23:05:49.394Z,19.65
2023-02-08T23:08:16.690Z,19.05
2023-02-08T23:10:43.765Z,22.10
2023-02-08T23:13:11.005Z,19.83
2023-02-08T23:15:40.402Z,21.73
2023-02-08T23:18:10.170Z,17.55
2023-02-08T23:20:37.227Z,18.63
2023-02-08T23:23:04.124Z,19.05
2023-02-08T23:25:30.674Z,20.52
2023-02-08T23:27:57.256Z,19.10
2023-02-08T23:30:23.816Z,20.30
2023-02-08T23:32:51.623Z,22.27
2023-02-08T23:35:18.196Z,20.05
2023-02-08T23:37:44.733Z,19.27
2023-02-08T23:40:11.587Z,18.60
2023-02-08T23:42:38.222Z,20.33
2023-02-08T23:45:05.273Z,18.95
2023-02-08T23:47:31.995Z,17.33
2023-02-08T23:49:59.944Z,19.27
2023-02-08T23:52:26.616Z,17.65
2023-02-08T23:54:53.120Z,19.38
2023-02-08T23:57:19.696Z,20.10
2023-02-08T23:59:46.205Z,23.38
